sensor_id;sensor_type;location;lat;lon;timestamp;temperature;humidity
79024;DHT22;70306;44.764;37.688;2023-07-13T00:00:12;23.40;77.31
79024;DHT22;70306;44.764;37.688;2023-07-13T00:01:17;23.43;77.17
79024;DHT22;70306;44.764;37.688;2023-07-13T00:02:18;23.43;76.88
79024;DHT22;70306;44.764;37.688;2023-07-13T00:03:20;23.41;77.25
79024;DHT22;70306;44.764;37.688;2023-07-13T00:04:23;23.44;77.20
79024;DHT22;70306;44.764;37.688;2023-07-13T00:05:28;23.43;77.01
79024;DHT22;70306;44.764;37.688;2023-07-13T00:06:30;23.43;77.02
79024;DHT22;70306;44.764;37.688;2023-07-13T00:07:34;23.40;77.24
79024;DHT22;70306;44.764;37.688;2023-07-13T00:08:36;23.37;77.32
79024;DHT22;70306;44.764;37.688;2023-07-13T00:09:37;23.37;77.55
79024;DHT22;70306;44.764;37.688;2023-07-13T00:10:40;23.38;77.45
79024;DHT22;70306;44.764;37.688;2023-07-13T00:11:43;23.38;77.35
79024;DHT22;70306;44.764;37.688;2023-07-13T00:12:45;23.41;77.24
79024;DHT22;70306;44.764;37.688;2023-07-13T00:13:47;23.41;77.53
79024;DHT22;70306;44.764;37.688;2023-07-13T00:14:48;23.43;77.50
79024;DHT22;70306;44.764;37.688;2023-07-13T00:15:51;23.44;77.47
79024;DHT22;70306;44.764;37.688;2023-07-13T00:16:55;23.43;77.33
79024;DHT22;70306;44.764;37.688;2023-07-13T00:17:56;23.44;77.59
79024;DHT22;70306;44.764;37.688;2023-07-13T00:18:58;23.44;77.68
79024;DHT22;70306;44.764;37.688;2023-07-13T00:20:01;23.44;77.14
79024;DHT22;70306;44.764;37.688;2023-07-13T00:21:03;23.44;77.54
79024;DHT22;70306;44.764;37.688;2023-07-13T00:22:08;23.45;78.08
79024;DHT22;70306;44.764;37.688;2023-07-13T00:23:09;23.45;77.84
79024;DHT22;70306;44.764;37.688;2023-07-13T00:24:14;23.45;77.52
79024;DHT22;70306;44.764;37.688;2023-07-13T00:25:16;23.45;77.70
79024;DHT22;70306;44.764;37.688;2023-07-13T00:26:18;23.44;77.62
79024;DHT22;70306;44.764;37.688;2023-07-13T00:27:20;23.43;77.59
79024;DHT22;70306;44.764;37.688;2023-07-13T00:28:21;23.43;77.86
79024;DHT22;70306;44.764;37.688;2023-07-13T00:29:23;23.44;77.63
79024;DHT22;70306;44.764;37.688;2023-07-13T00:30:26;23.45;77.75
79024;DHT22;70306;44.764;37.688;2023-07-13T00:31:27;23.47;77.36
79024;DHT22;70306;44.764;37.688;2023-07-13T00:32:29;23.45;77.22
79024;DHT22;70306;44.764;37.688;2023-07-13T00:33:31;23.45;77.65
79024;DHT22;70306;44.764;37.688;2023-07-13T00:34:34;23.44;78.03
79024;DHT22;70306;44.764;37.688;2023-07-13T00:35:36;23.51;78.26
79024;DHT22;70306;44.764;37.688;2023-07-13T00:36:39;23.48;77.99
79024;DHT22;70306;44.764;37.688;2023-07-13T00:37:41;23.50;77.92
79024;DHT22;70306;44.764;37.688;2023-07-13T00:38:43;23.50;77.78
79024;DHT22;70306;44.764;37.688;2023-07-13T00:39:45;23.50;77.64
79024;DHT22;70306;44.764;37.688;2023-07-13T00:40:50;23.50;77.46
79024;DHT22;70306;44.764;37.688;2023-07-13T00:41:52;23.50;77.44
79024;DHT22;70306;44.764;37.688;2023-07-13T00:42:57;23.48;77.54
79024;DHT22;70306;44.764;37.688;2023-07-13T00:43:59;23.48;77.68
79024;DHT22;70306;44.764;37.688;2023-07-13T00:46:36;23.45;77.55
79024;DHT22;70306;44.764;37.688;2023-07-13T00:47:41;23.44;77.94
79024;DHT22;70306;44.764;37.688;2023-07-13T00:48:45;23.40;77.64
79024;DHT22;70306;44.764;37.688;2023-07-13T00:49:49;23.40;77.08
79024;DHT22;70306;44.764;37.688;2023-07-13T00:50:53;23.36;77.37
79024;DHT22;70306;44.764;37.688;2023-07-13T00:52:00;23.36;77.79
79024;DHT22;70306;44.764;37.688;2023-07-13T00:53:03;23.36;77.28
79024;DHT22;70306;44.764;37.688;2023-07-13T00:54:10;23.28;77.49
79024;DHT22;70306;44.764;37.688;2023-07-13T00:55:17;23.28;77.69
79024;DHT22;70306;44.764;37.688;2023-07-13T00:56:19;23.26;77.65
79024;DHT22;70306;44.764;37.688;2023-07-13T00:57:21;23.24;77.62
79024;DHT22;70306;44.764;37.688;2023-07-13T00:58:26;23.23;77.94
79024;DHT22;70306;44.764;37.688;2023-07-13T00:59:29;23.23;77.78
79024;DHT22;70306;44.764;37.688;2023-07-13T01:00:36;23.20;77.57
79024;DHT22;70306;44.764;37.688;2023-07-13T01:01:39;23.20;77.85
79024;DHT22;70306;44.764;37.688;2023-07-13T01:02:44;23.20;77.91
79024;DHT22;70306;44.764;37.688;2023-07-13T01:03:47;23.19;77.73
79024;DHT22;70306;44.764;37.688;2023-07-13T01:04:48;23.17;77.80
79024;DHT22;70306;44.764;37.688;2023-07-13T01:05:50;23.17;77.93
79024;DHT22;70306;44.764;37.688;2023-07-13T01:06:56;23.14;78.04
79024;DHT22;70306;44.764;37.688;2023-07-13T01:07:59;23.14;77.91
79024;DHT22;70306;44.764;37.688;2023-07-13T01:09:01;23.13;77.64
79024;DHT22;70306;44.764;37.688;2023-07-13T01:10:04;23.14;77.70
79024;DHT22;70306;44.764;37.688;2023-07-13T01:11:06;23.10;77.57
79024;DHT22;70306;44.764;37.688;2023-07-13T01:12:09;23.11;77.79
79024;DHT22;70306;44.764;37.688;2023-07-13T01:13:11;23.11;77.84
79024;DHT22;70306;44.764;37.688;2023-07-13T01:14:13;23.13;78.23
79024;DHT22;70306;44.764;37.688;2023-07-13T01:15:39;23.10;78.28
79024;DHT22;70306;44.764;37.688;2023-07-13T01:16:42;23.09;78.12
79024;DHT22;70306;44.764;37.688;2023-07-13T01:17:44;23.06;77.92
79024;DHT22;70306;44.764;37.688;2023-07-13T01:18:46;23.06;78.24
79024;DHT22;70306;44.764;37.688;2023-07-13T01:19:48;23.06;78.14
79024;DHT22;70306;44.764;37.688;2023-07-13T01:20:52;23.04;78.17
79024;DHT22;70306;44.764;37.688;2023-07-13T01:21:54;23.04;77.87
79024;DHT22;70306;44.764;37.688;2023-07-13T01:22:56;23.02;77.81
79024;DHT22;70306;44.764;37.688;2023-07-13T01:23:57;23.02;77.79
79024;DHT22;70306;44.764;37.688;2023-07-13T01:24:59;23.02;78.12
79024;DHT22;70306;44.764;37.688;2023-07-13T01:26:01;22.99;78.23
79024;DHT22;70306;44.764;37.688;2023-07-13T01:27:03;22.98;78.18
79024;DHT22;70306;44.764;37.688;2023-07-13T01:28:08;23.03;78.54
79024;DHT22;70306;44.764;37.688;2023-07-13T01:29:10;23.00;78.30
79024;DHT22;70306;44.764;37.688;2023-07-13T01:30:13;23.00;78.51
79024;DHT22;70306;44.764;37.688;2023-07-13T01:31:15;23.03;78.50
79024;DHT22;70306;44.764;37.688;2023-07-13T01:32:20;23.02;78.44
79024;DHT22;70306;44.764;37.688;2023-07-13T01:33:25;23.04;78.14
79024;DHT22;70306;44.764;37.688;2023-07-13T01:34:27;23.02;77.94
79024;DHT22;70306;44.764;37.688;2023-07-13T01:35:29;23.00;77.90
79024;DHT22;70306;44.764;37.688;2023-07-13T01:36:31;22.96;77.81
79024;DHT22;70306;44.764;37.688;2023-07-13T01:37:34;22.95;77.67
79024;DHT22;70306;44.764;37.688;2023-07-13T01:38:37;22.93;77.90
79024;DHT22;70306;44.764;37.688;2023-07-13T01:39:39;22.95;78.08
79024;DHT22;70306;44.764;37.688;2023-07-13T01:40:41;22.92;78.22
79024;DHT22;70306;44.764;37.688;2023-07-13T01:41:42;22.91;77.97
79024;DHT22;70306;44.764;37.688;2023-07-13T01:42:44;22.89;77.97
79024;DHT22;70306;44.764;37.688;2023-07-13T01:43:46;22.86;77.99
79024;DHT22;70306;44.764;37.688;2023-07-13T01:44:48;22.85;78.19
79024;DHT22;70306;44.764;37.688;2023-07-13T01:45:49;22.86;78.16
79024;DHT22;70306;44.764;37.688;2023-07-13T01:46:51;22.83;78.37
79024;DHT22;70306;44.764;37.688;2023-07-13T01:47:53;22.83;78.48
79024;DHT22;70306;44.764;37.688;2023-07-13T01:48:54;22.85;78.44
79024;DHT22;70306;44.764;37.688;2023-07-13T01:49:58;22.85;78.40
79024;DHT22;70306;44.764;37.688;2023-07-13T01:51:00;22.85;78.39
79024;DHT22;70306;44.764;37.688;2023-07-13T01:52:02;22.81;78.52
79024;DHT22;70306;44.764;37.688;2023-07-13T01:53:06;22.82;78.35
79024;DHT22;70306;44.764;37.688;2023-07-13T01:54:07;22.82;78.10
79024;DHT22;70306;44.764;37.688;2023-07-13T01:55:09;22.82;77.80
79024;DHT22;70306;44.764;37.688;2023-07-13T01:56:11;22.75;77.99
79024;DHT22;70306;44.764;37.688;2023-07-13T01:57:12;22.75;78.60
79024;DHT22;70306;44.764;37.688;2023-07-13T01:58:14;22.76;78.86
79024;DHT22;70306;44.764;37.688;2023-07-13T01:59:16;22.75;78.86
79024;DHT22;70306;44.764;37.688;2023-07-13T02:00:18;22.81;78.87
79024;DHT22;70306;44.764;37.688;2023-07-13T02:01:22;22.81;78.75
79024;DHT22;70306;44.764;37.688;2023-07-13T02:02:24;22.81;79.09
79024;DHT22;70306;44.764;37.688;2023-07-13T02:03:26;22.82;79.26
79024;DHT22;70306;44.764;37.688;2023-07-13T02:04:27;22.85;78.91
79024;DHT22;70306;44.764;37.688;2023-07-13T02:05:29;22.88;79.01
79024;DHT22;70306;44.764;37.688;2023-07-13T02:06:31;22.89;78.88
79024;DHT22;70306;44.764;37.688;2023-07-13T02:07:32;22.91;78.63
79024;DHT22;70306;44.764;37.688;2023-07-13T02:08:34;22.89;78.90
79024;DHT22;70306;44.764;37.688;2023-07-13T02:09:36;22.91;79.08
79024;DHT22;70306;44.764;37.688;2023-07-13T02:10:38;22.93;79.15
79024;DHT22;70306;44.764;37.688;2023-07-13T02:11:40;22.93;78.93
79024;DHT22;70306;44.764;37.688;2023-07-13T02:12:42;22.96;79.07
79024;DHT22;70306;44.764;37.688;2023-07-13T02:13:44;22.98;79.07
79024;DHT22;70306;44.764;37.688;2023-07-13T02:14:46;22.95;78.86
79024;DHT22;70306;44.764;37.688;2023-07-13T02:15:50;22.99;79.19
79024;DHT22;70306;44.764;37.688;2023-07-13T02:16:52;23.00;78.90
79024;DHT22;70306;44.764;37.688;2023-07-13T02:17:54;23.00;78.87
79024;DHT22;70306;44.764;37.688;2023-07-13T02:18:56;22.99;78.91
79024;DHT22;70306;44.764;37.688;2023-07-13T02:19:58;23.03;78.94
79024;DHT22;70306;44.764;37.688;2023-07-13T02:21:00;23.00;78.55
79024;DHT22;70306;44.764;37.688;2023-07-13T02:22:02;23.02;78.77
79024;DHT22;70306;44.764;37.688;2023-07-13T02:23:04;23.02;78.65
79024;DHT22;70306;44.764;37.688;2023-07-13T02:24:05;22.99;78.99
79024;DHT22;70306;44.764;37.688;2023-07-13T02:25:07;23.00;78.80
79024;DHT22;70306;44.764;37.688;2023-07-13T02:26:10;23.00;78.88
79024;DHT22;70306;44.764;37.688;2023-07-13T02:27:11;23.00;78.70
79024;DHT22;70306;44.764;37.688;2023-07-13T02:28:13;22.98;78.95
79024;DHT22;70306;44.764;37.688;2023-07-13T02:29:15;22.98;79.51
79024;DHT22;70306;44.764;37.688;2023-07-13T02:30:16;22.98;79.58
79024;DHT22;70306;44.764;37.688;2023-07-13T02:31:18;22.99;79.45
79024;DHT22;70306;44.764;37.688;2023-07-13T02:32:21;22.98;79.33
79024;DHT22;70306;44.764;37.688;2023-07-13T02:33:22;22.98;79.67
79024;DHT22;70306;44.764;37.688;2023-07-13T02:34:24;22.98;79.54
79024;DHT22;70306;44.764;37.688;2023-07-13T02:35:26;23.02;79.76
79024;DHT22;70306;44.764;37.688;2023-07-13T02:36:28;23.00;79.82
79024;DHT22;70306;44.764;37.688;2023-07-13T02:37:30;23.02;79.56
79024;DHT22;70306;44.764;37.688;2023-07-13T02:38:32;23.02;79.37
79024;DHT22;70306;44.764;37.688;2023-07-13T02:39:40;23.00;79.13
79024;DHT22;70306;44.764;37.688;2023-07-13T02:40:42;22.99;78.66
79024;DHT22;70306;44.764;37.688;2023-07-13T02:41:44;22.96;78.93
79024;DHT22;70306;44.764;37.688;2023-07-13T02:42:47;22.98;79.07
79024;DHT22;70306;44.764;37.688;2023-07-13T02:43:48;22.98;78.63
79024;DHT22;70306;44.764;37.688;2023-07-13T02:44:50;22.96;78.67
79024;DHT22;70306;44.764;37.688;2023-07-13T02:45:52;22.93;78.34
79024;DHT22;70306;44.764;37.688;2023-07-13T02:46:54;22.93;78.67
79024;DHT22;70306;44.764;37.688;2023-07-13T02:47:56;22.95;78.56
79024;DHT22;70306;44.764;37.688;2023-07-13T02:48:58;22.92;78.37
79024;DHT22;70306;44.764;37.688;2023-07-13T02:49:59;22.95;78.24
79024;DHT22;70306;44.764;37.688;2023-07-13T02:51:01;22.96;78.63
79024;DHT22;70306;44.764;37.688;2023-07-13T02:52:03;22.95;78.78
79024;DHT22;70306;44.764;37.688;2023-07-13T02:53:05;22.96;78.91
79024;DHT22;70306;44.764;37.688;2023-07-13T02:54:07;22.98;78.24
79024;DHT22;70306;44.764;37.688;2023-07-13T02:55:09;22.98;78.46
79024;DHT22;70306;44.764;37.688;2023-07-13T02:56:11;22.96;78.67
79024;DHT22;70306;44.764;37.688;2023-07-13T02:57:13;22.98;78.44
79024;DHT22;70306;44.764;37.688;2023-07-13T02:58:18;22.95;78.58
79024;DHT22;70306;44.764;37.688;2023-07-13T02:59:20;22.96;78.45
79024;DHT22;70306;44.764;37.688;2023-07-13T03:00:22;22.98;78.29
79024;DHT22;70306;44.764;37.688;2023-07-13T03:01:24;22.96;78.01
79024;DHT22;70306;44.764;37.688;2023-07-13T03:02:26;22.96;78.14
79024;DHT22;70306;44.764;37.688;2023-07-13T03:03:29;22.96;78.27
79024;DHT22;70306;44.764;37.688;2023-07-13T03:04:31;22.96;77.93
79024;DHT22;70306;44.764;37.688;2023-07-13T03:05:33;22.98;77.97
79024;DHT22;70306;44.764;37.688;2023-07-13T03:06:35;22.96;78.03
79024;DHT22;70306;44.764;37.688;2023-07-13T03:07:39;22.96;77.96
79024;DHT22;70306;44.764;37.688;2023-07-13T03:08:41;22.96;78.20
79024;DHT22;70306;44.764;37.688;2023-07-13T03:09:43;22.98;77.74
79024;DHT22;70306;44.764;37.688;2023-07-13T03:10:45;22.96;77.91
79024;DHT22;70306;44.764;37.688;2023-07-13T03:11:47;22.99;78.30
79024;DHT22;70306;44.764;37.688;2023-07-13T03:13:09;23.04;78.47
79024;DHT22;70306;44.764;37.688;2023-07-13T03:14:11;23.04;78.30
79024;DHT22;70306;44.764;37.688;2023-07-13T03:15:13;23.06;78.26
79024;DHT22;70306;44.764;37.688;2023-07-13T03:16:18;23.07;78.38
79024;DHT22;70306;44.764;37.688;2023-07-13T03:17:21;23.10;78.40
79024;DHT22;70306;44.764;37.688;2023-07-13T03:18:23;23.14;78.32
79024;DHT22;70306;44.764;37.688;2023-07-13T03:19:25;23.20;78.32
79024;DHT22;70306;44.764;37.688;2023-07-13T03:20:27;23.28;78.15
79024;DHT22;70306;44.764;37.688;2023-07-13T03:21:29;23.33;78.44
79024;DHT22;70306;44.764;37.688;2023-07-13T03:22:31;23.37;78.43
79024;DHT22;70306;44.764;37.688;2023-07-13T03:23:33;23.43;78.61
79024;DHT22;70306;44.764;37.688;2023-07-13T03:24:35;23.48;78.37
79024;DHT22;70306;44.764;37.688;2023-07-13T03:25:40;23.57;78.45
79024;DHT22;70306;44.764;37.688;2023-07-13T03:26:43;23.61;78.41
79024;DHT22;70306;44.764;37.688;2023-07-13T03:27:45;23.63;78.30
79024;DHT22;70306;44.764;37.688;2023-07-13T03:28:47;23.72;78.29
79024;DHT22;70306;44.764;37.688;2023-07-13T03:29:53;23.78;78.52
79024;DHT22;70306;44.764;37.688;2023-07-13T03:31:06;23.85;78.19
79024;DHT22;70306;44.764;37.688;2023-07-13T03:32:08;23.93;77.56
79024;DHT22;70306;44.764;37.688;2023-07-13T03:33:10;23.97;77.56
79024;DHT22;70306;44.764;37.688;2023-07-13T03:34:12;23.99;77.13
79024;DHT22;70306;44.764;37.688;2023-07-13T03:35:15;24.05;76.92
79024;DHT22;70306;44.764;37.688;2023-07-13T03:36:20;24.07;76.77
79024;DHT22;70306;44.764;37.688;2023-07-13T03:37:22;24.12;76.79
79024;DHT22;70306;44.764;37.688;2023-07-13T03:38:26;24.14;76.87
79024;DHT22;70306;44.764;37.688;2023-07-13T03:39:28;24.12;76.53
79024;DHT22;70306;44.764;37.688;2023-07-13T03:40:32;24.10;76.63
79024;DHT22;70306;44.764;37.688;2023-07-13T03:41:35;24.12;76.87
79024;DHT22;70306;44.764;37.688;2023-07-13T03:42:37;24.13;76.40
79024;DHT22;70306;44.764;37.688;2023-07-13T03:43:38;24.13;76.77
79024;DHT22;70306;44.764;37.688;2023-07-13T03:44:41;24.10;76.40
79024;DHT22;70306;44.764;37.688;2023-07-13T03:45:43;24.06;76.73
79024;DHT22;70306;44.764;37.688;2023-07-13T03:46:45;24.06;76.72
79024;DHT22;70306;44.764;37.688;2023-07-13T03:47:48;24.12;76.77
79024;DHT22;70306;44.764;37.688;2023-07-13T03:48:52;24.13;76.39
79024;DHT22;70306;44.764;37.688;2023-07-13T03:49:54;24.16;76.80
79024;DHT22;70306;44.764;37.688;2023-07-13T03:50:55;24.18;76.66
79024;DHT22;70306;44.764;37.688;2023-07-13T03:51:57;24.18;76.51
79024;DHT22;70306;44.764;37.688;2023-07-13T03:53:00;24.23;76.17
79024;DHT22;70306;44.764;37.688;2023-07-13T03:54:03;24.24;76.33
79024;DHT22;70306;44.764;37.688;2023-07-13T03:55:05;24.33;76.15
79024;DHT22;70306;44.764;37.688;2023-07-13T03:56:08;24.38;76.19
79024;DHT22;70306;44.764;37.688;2023-07-13T03:57:10;24.45;76.08
79024;DHT22;70306;44.764;37.688;2023-07-13T03:58:37;24.54;75.19
79024;DHT22;70306;44.764;37.688;2023-07-13T03:59:45;24.59;75.23
79024;DHT22;70306;44.764;37.688;2023-07-13T04:00:47;24.65;75.19
79024;DHT22;70306;44.764;37.688;2023-07-13T04:01:48;24.73;74.59
79024;DHT22;70306;44.764;37.688;2023-07-13T04:02:51;24.77;74.66
79024;DHT22;70306;44.764;37.688;2023-07-13T04:03:53;24.82;74.41
79024;DHT22;70306;44.764;37.688;2023-07-13T04:04:57;24.86;74.51
79024;DHT22;70306;44.764;37.688;2023-07-13T04:06:00;24.90;73.95
79024;DHT22;70306;44.764;37.688;2023-07-13T04:07:02;24.94;74.11
79024;DHT22;70306;44.764;37.688;2023-07-13T04:08:04;24.96;74.01
79024;DHT22;70306;44.764;37.688;2023-07-13T04:09:08;25.02;73.95
79024;DHT22;70306;44.764;37.688;2023-07-13T04:10:10;25.07;73.70
79024;DHT22;70306;44.764;37.688;2023-07-13T04:11:11;25.11;73.04
79024;DHT22;70306;44.764;37.688;2023-07-13T04:12:13;25.13;73.77
79024;DHT22;70306;44.764;37.688;2023-07-13T04:13:17;25.20;73.14
79024;DHT22;70306;44.764;37.688;2023-07-13T04:14:19;25.23;72.80
79024;DHT22;70306;44.764;37.688;2023-07-13T04:15:21;25.30;72.96
79024;DHT22;70306;44.764;37.688;2023-07-13T04:16:23;25.35;72.39
79024;DHT22;70306;44.764;37.688;2023-07-13T04:17:25;25.41;71.82
79024;DHT22;70306;44.764;37.688;2023-07-13T04:18:27;25.34;72.36
79024;DHT22;70306;44.764;37.688;2023-07-13T04:19:28;25.26;72.10
79024;DHT22;70306;44.764;37.688;2023-07-13T04:20:30;25.17;72.66
79024;DHT22;70306;44.764;37.688;2023-07-13T04:21:32;25.26;73.18
79024;DHT22;70306;44.764;37.688;2023-07-13T04:22:34;25.35;73.30
79024;DHT22;70306;44.764;37.688;2023-07-13T04:23:37;25.44;73.06
79024;DHT22;70306;44.764;37.688;2023-07-13T04:24:38;25.51;72.60
79024;DHT22;70306;44.764;37.688;2023-07-13T04:25:44;25.54;72.20
79024;DHT22;70306;44.764;37.688;2023-07-13T04:26:45;25.57;72.48
79024;DHT22;70306;44.764;37.688;2023-07-13T04:27:47;25.61;71.40
79024;DHT22;70306;44.764;37.688;2023-07-13T04:28:50;25.63;71.22
79024;DHT22;70306;44.764;37.688;2023-07-13T04:29:52;25.62;72.14
79024;DHT22;70306;44.764;37.688;2023-07-13T04:30:54;25.66;72.58
79024;DHT22;70306;44.764;37.688;2023-07-13T04:31:56;25.68;71.82
79024;DHT22;70306;44.764;37.688;2023-07-13T04:32:58;25.76;71.57
79024;DHT22;70306;44.764;37.688;2023-07-13T04:34:00;25.80;70.83
79024;DHT22;70306;44.764;37.688;2023-07-13T04:35:02;25.78;71.15
79024;DHT22;70306;44.764;37.688;2023-07-13T04:36:04;25.76;71.05
79024;DHT22;70306;44.764;37.688;2023-07-13T04:37:06;25.80;71.12
79024;DHT22;70306;44.764;37.688;2023-07-13T04:38:08;25.86;70.92
79024;DHT22;70306;44.764;37.688;2023-07-13T04:39:12;25.94;70.31
79024;DHT22;70306;44.764;37.688;2023-07-13T04:40:14;26.00;70.18
79024;DHT22;70306;44.764;37.688;2023-07-13T04:41:16;26.10;70.55
79024;DHT22;70306;44.764;37.688;2023-07-13T04:42:17;26.16;70.36
79024;DHT22;70306;44.764;37.688;2023-07-13T04:43:19;26.18;69.86
79024;DHT22;70306;44.764;37.688;2023-07-13T04:44:21;26.23;70.16
79024;DHT22;70306;44.764;37.688;2023-07-13T04:45:24;26.32;69.97
79024;DHT22;70306;44.764;37.688;2023-07-13T04:46:25;26.42;70.30
79024;DHT22;70306;44.764;37.688;2023-07-13T04:47:30;26.47;69.13
79024;DHT22;70306;44.764;37.688;2023-07-13T04:48:33;26.51;68.62
79024;DHT22;70306;44.764;37.688;2023-07-13T04:49:35;26.58;68.59
79024;DHT22;70306;44.764;37.688;2023-07-13T04:50:37;26.65;67.78
79024;DHT22;70306;44.764;37.688;2023-07-13T04:51:39;26.68;67.26
79024;DHT22;70306;44.764;37.688;2023-07-13T04:52:41;26.75;67.12
79024;DHT22;70306;44.764;37.688;2023-07-13T04:53:43;26.75;66.18
79024;DHT22;70306;44.764;37.688;2023-07-13T04:54:45;26.66;67.32
79024;DHT22;70306;44.764;37.688;2023-07-13T04:55:46;26.68;67.55
79024;DHT22;70306;44.764;37.688;2023-07-13T04:56:48;26.75;66.40
79024;DHT22;70306;44.764;37.688;2023-07-13T04:57:51;26.79;66.23
79024;DHT22;70306;44.764;37.688;2023-07-13T04:58:52;26.72;65.58
79024;DHT22;70306;44.764;37.688;2023-07-13T04:59:54;26.66;66.05
79024;DHT22;70306;44.764;37.688;2023-07-13T05:01:05;26.62;66.98
79024;DHT22;70306;44.764;37.688;2023-07-13T05:02:08;26.59;67.09
79024;DHT22;70306;44.764;37.688;2023-07-13T05:03:09;26.53;66.60
79024;DHT22;70306;44.764;37.688;2023-07-13T05:04:11;26.52;67.52
79024;DHT22;70306;44.764;37.688;2023-07-13T05:05:13;26.53;67.39
79024;DHT22;70306;44.764;37.688;2023-07-13T05:06:14;26.51;67.08
79024;DHT22;70306;44.764;37.688;2023-07-13T05:07:16;26.49;67.21
79024;DHT22;70306;44.764;37.688;2023-07-13T05:08:18;26.49;67.69
79024;DHT22;70306;44.764;37.688;2023-07-13T05:09:19;26.44;68.23
79024;DHT22;70306;44.764;37.688;2023-07-13T05:10:21;26.45;67.23
79024;DHT22;70306;44.764;37.688;2023-07-13T05:11:24;26.40;67.07
79024;DHT22;70306;44.764;37.688;2023-07-13T05:12:26;26.37;67.72
79024;DHT22;70306;44.764;37.688;2023-07-13T05:13:30;26.32;68.53
79024;DHT22;70306;44.764;37.688;2023-07-13T05:14:32;26.31;68.13
79024;DHT22;70306;44.764;37.688;2023-07-13T05:15:34;26.31;68.41
79024;DHT22;70306;44.764;37.688;2023-07-13T05:16:36;26.30;69.13
79024;DHT22;70306;44.764;37.688;2023-07-13T05:17:37;26.37;69.86
79024;DHT22;70306;44.764;37.688;2023-07-13T05:18:40;26.38;68.56
79024;DHT22;70306;44.764;37.688;2023-07-13T05:19:42;26.40;68.41
79024;DHT22;70306;44.764;37.688;2023-07-13T05:20:43;26.42;69.29
79024;DHT22;70306;44.764;37.688;2023-07-13T05:21:45;26.41;69.12
79024;DHT22;70306;44.764;37.688;2023-07-13T05:22:47;26.48;68.97
79024;DHT22;70306;44.764;37.688;2023-07-13T05:23:49;26.45;68.22
79024;DHT22;70306;44.764;37.688;2023-07-13T05:24:51;26.45;67.49
79024;DHT22;70306;44.764;37.688;2023-07-13T05:25:53;26.47;68.23
79024;DHT22;70306;44.764;37.688;2023-07-13T05:26:55;26.49;69.16
79024;DHT22;70306;44.764;37.688;2023-07-13T05:28:00;26.51;69.26
79024;DHT22;70306;44.764;37.688;2023-07-13T05:29:01;26.52;68.90
79024;DHT22;70306;44.764;37.688;2023-07-13T05:30:04;26.56;68.49
79024;DHT22;70306;44.764;37.688;2023-07-13T05:31:09;26.53;68.59
79024;DHT22;70306;44.764;37.688;2023-07-13T05:32:11;26.53;68.43
79024;DHT22;70306;44.764;37.688;2023-07-13T05:33:13;26.58;68.62
79024;DHT22;70306;44.764;37.688;2023-07-13T05:34:14;26.58;67.04
79024;DHT22;70306;44.764;37.688;2023-07-13T05:35:16;26.60;66.29
79024;DHT22;70306;44.764;37.688;2023-07-13T05:36:18;26.63;68.04
79024;DHT22;70306;44.764;37.688;2023-07-13T05:37:20;26.68;66.85
79024;DHT22;70306;44.764;37.688;2023-07-13T05:38:21;26.71;66.79
79024;DHT22;70306;44.764;37.688;2023-07-13T05:39:23;26.69;67.51
79024;DHT22;70306;44.764;37.688;2023-07-13T05:40:25;26.69;65.90
79024;DHT22;70306;44.764;37.688;2023-07-13T05:41:27;26.71;66.95
79024;DHT22;70306;44.764;37.688;2023-07-13T05:42:29;26.73;67.95
79024;DHT22;70306;44.764;37.688;2023-07-13T05:43:32;26.73;66.81
79024;DHT22;70306;44.764;37.688;2023-07-13T05:44:34;26.75;64.02
79024;DHT22;70306;44.764;37.688;2023-07-13T05:45:36;26.73;67.16
79024;DHT22;70306;44.764;37.688;2023-07-13T05:46:38;26.79;66.56
79024;DHT22;70306;44.764;37.688;2023-07-13T05:47:40;26.79;63.90
79024;DHT22;70306;44.764;37.688;2023-07-13T05:48:41;26.83;65.82
79024;DHT22;70306;44.764;37.688;2023-07-13T05:49:43;26.83;66.37
79024;DHT22;70306;44.764;37.688;2023-07-13T05:50:45;26.87;64.69
79024;DHT22;70306;44.764;37.688;2023-07-13T05:51:46;26.92;64.53
79024;DHT22;70306;44.764;37.688;2023-07-13T05:52:48;26.96;63.46
79024;DHT22;70306;44.764;37.688;2023-07-13T05:53:50;27.04;66.37
79024;DHT22;70306;44.764;37.688;2023-07-13T05:54:51;27.03;64.78
79024;DHT22;70306;44.764;37.688;2023-07-13T05:55:54;27.06;64.63
79024;DHT22;70306;44.764;37.688;2023-07-13T05:56:56;27.07;66.20
79024;DHT22;70306;44.764;37.688;2023-07-13T05:57:59;27.06;63.22
79024;DHT22;70306;44.764;37.688;2023-07-13T05:59:00;27.11;65.72
79024;DHT22;70306;44.764;37.688;2023-07-13T06:00:02;27.21;63.94
79024;DHT22;70306;44.764;37.688;2023-07-13T06:01:15;27.23;63.56
79024;DHT22;70306;44.764;37.688;2023-07-13T06:02:16;27.28;64.22
79024;DHT22;70306;44.764;37.688;2023-07-13T06:03:18;27.35;65.40
79024;DHT22;70306;44.764;37.688;2023-07-13T06:04:20;27.44;62.80
79024;DHT22;70306;44.764;37.688;2023-07-13T06:05:21;27.39;62.53
79024;DHT22;70306;44.764;37.688;2023-07-13T06:06:23;27.35;62.73
79024;DHT22;70306;44.764;37.688;2023-07-13T06:07:25;27.31;64.30
79024;DHT22;70306;44.764;37.688;2023-07-13T06:08:27;27.31;65.41
79024;DHT22;70306;44.764;37.688;2023-07-13T06:09:29;27.33;64.16
79024;DHT22;70306;44.764;37.688;2023-07-13T06:10:34;27.34;62.57
79024;DHT22;70306;44.764;37.688;2023-07-13T06:11:36;27.31;61.09
79024;DHT22;70306;44.764;37.688;2023-07-13T06:12:38;27.28;61.81
79024;DHT22;70306;44.764;37.688;2023-07-13T06:13:39;27.28;64.76
79024;DHT22;70306;44.764;37.688;2023-07-13T06:14:41;27.31;65.00
79024;DHT22;70306;44.764;37.688;2023-07-13T06:15:48;27.37;65.22
79024;DHT22;70306;44.764;37.688;2023-07-13T06:16:50;27.35;63.55
79024;DHT22;70306;44.764;37.688;2023-07-13T06:17:52;27.28;60.56
79024;DHT22;70306;44.764;37.688;2023-07-13T06:18:53;27.27;62.51
79024;DHT22;70306;44.764;37.688;2023-07-13T06:19:55;27.31;61.20
79024;DHT22;70306;44.764;37.688;2023-07-13T06:20:57;27.38;63.44
79024;DHT22;70306;44.764;37.688;2023-07-13T06:21:58;27.41;63.90
79024;DHT22;70306;44.764;37.688;2023-07-13T06:23:01;27.42;59.68
79024;DHT22;70306;44.764;37.688;2023-07-13T06:24:03;27.51;60.51
79024;DHT22;70306;44.764;37.688;2023-07-13T06:25:05;27.55;61.35
79024;DHT22;70306;44.764;37.688;2023-07-13T06:26:08;27.62;61.92
79024;DHT22;70306;44.764;37.688;2023-07-13T06:27:10;27.62;61.59
79024;DHT22;70306;44.764;37.688;2023-07-13T06:28:12;27.59;59.92
79024;DHT22;70306;44.764;37.688;2023-07-13T06:29:14;27.62;61.15
79024;DHT22;70306;44.764;37.688;2023-07-13T06:30:15;27.65;61.15